Terminal Aerodrome Forecast
Issued by NWS

Home | Current Version | Previous Version | Text Only | Print | Product List | Glossary On
Versions: 1 2 3 4 5 6 7 8 9 10 11 12
000
FTUS45 KTFX 292326
TAFBZN
TAF
KBZN 292326Z 3000/3024 VRB06KT P6SM VCTS SCT070CB BKN150
     FM300200 VRB06KT P6SM SCT090 BKN150
     FM300600 VRB06KT P6SM SCT150=

USA.gov is the U.S. government's official web portal to all federal, state and local government web resources and services.